createdAt,value
2022-11-19T00:01:23.821Z,99.90
2022-11-19T00:03:53.059Z,99.90
2022-11-19T00:06:25.514Z,99.90
2022-11-19T00:08:52.807Z,99.90
2022-11-19T00:11:48.020Z,99.90
2022-11-19T00:14:16.726Z,99.90
2022-11-19T00:16:44.512Z,99.90
2022-11-19T00:19:12.285Z,99.90
2022-11-19T00:21:39.166Z,99.90
2022-11-19T00:24:06.731Z,99.90
2022-11-19T00:26:33.612Z,99.90
2022-11-19T00:29:00.537Z,99.90
2022-11-19T00:31:27.296Z,99.90
2022-11-19T00:33:54.956Z,99.90
2022-11-19T00:36:22.514Z,99.90
2022-11-19T00:38:49.281Z,99.90
2022-11-19T00:41:16.332Z,99.90
2022-11-19T00:43:49.738Z,99.90
2022-11-19T00:46:22.003Z,99.90
2022-11-19T00:48:50.653Z,99.90
2022-11-19T00:51:19.439Z,99.90
2022-11-19T00:53:46.937Z,99.90
2022-11-19T00:56:16.130Z,99.90
2022-11-19T00:58:43.374Z,99.90
2022-11-19T01:01:11.091Z,99.90
2022-11-19T01:03:38.926Z,99.90
2022-11-19T01:06:06.989Z,99.90
2022-11-19T01:08:33.776Z,99.90
2022-11-19T01:11:15.341Z,99.90
2022-11-19T01:13:42.805Z,99.90
2022-11-19T01:16:14.056Z,99.90
2022-11-19T01:18:42.436Z,99.90
2022-11-19T01:21:11.113Z,99.90
2022-11-19T01:23:39.541Z,99.90
2022-11-19T01:26:07.086Z,99.90
2022-11-19T01:28:33.982Z,99.90
2022-11-19T01:31:05.702Z,99.90
2022-11-19T01:33:33.317Z,99.90
2022-11-19T01:36:01.992Z,99.90
2022-11-19T01:38:30.343Z,99.90
2022-11-19T01:40:58.158Z,99.90
2022-11-19T01:43:39.923Z,99.90
2022-11-19T01:46:06.884Z,99.90
2022-11-19T01:48:37.018Z,99.90
2022-11-19T01:51:19.011Z,99.90
2022-11-19T01:53:49.825Z,99.90
2022-11-19T01:56:19.869Z,99.90
2022-11-19T01:58:52.568Z,99.90
2022-11-19T02:01:19.329Z,99.90
2022-11-19T02:03:48.034Z,99.90
2022-11-19T02:06:15.123Z,99.90
2022-11-19T02:08:45.429Z,99.90
2022-11-19T02:11:52.801Z,99.90
2022-11-19T02:14:40.668Z,99.90
2022-11-19T02:17:24.862Z,99.90
2022-11-19T02:20:09.343Z,99.90
2022-11-19T02:23:07.336Z,99.90
2022-11-19T02:25:56.028Z,99.90
2022-11-19T02:28:46.227Z,99.90
2022-11-19T02:31:24.223Z,99.90
2022-11-19T02:34:02.498Z,99.90
2022-11-19T02:36:41.104Z,99.90
2022-11-19T02:39:07.719Z,99.90
2022-11-19T02:41:39.714Z,99.90
2022-11-19T02:44:28.995Z,99.90
2022-11-19T02:46:57.451Z,99.90
2022-11-19T02:49:27.813Z,99.90
2022-11-19T02:51:54.836Z,99.90
2022-11-19T02:54:21.638Z,99.90
2022-11-19T02:56:51.827Z,99.90
2022-11-19T03:00:15.058Z,99.90
2022-11-19T03:03:05.090Z,99.90
2022-11-19T03:05:36.041Z,99.90
2022-11-19T03:08:03.716Z,99.90
2022-11-19T03:10:44.346Z,99.90
2022-11-19T03:13:39.925Z,99.90
2022-11-19T03:16:31.806Z,99.90
2022-11-19T03:19:08.485Z,99.90
2022-11-19T03:21:52.082Z,99.90
2022-11-19T03:24:31.026Z,99.90
2022-11-19T03:27:10.658Z,99.90
2022-11-19T03:29:43.061Z,99.90
2022-11-19T03:32:17.302Z,99.90
2022-11-19T03:34:46.951Z,99.90
2022-11-19T03:37:17.067Z,99.90
2022-11-19T03:39:45.400Z,99.90
2022-11-19T03:42:15.959Z,99.90
2022-11-19T03:44:53.436Z,99.90
2022-11-19T03:47:24.719Z,99.90
2022-11-19T03:49:57.872Z,99.90
2022-11-19T03:52:24.645Z,99.90
2022-11-19T03:54:53.121Z,99.90
2022-11-19T03:57:23.533Z,99.90
2022-11-19T03:59:50.384Z,99.90
2022-11-19T04:02:17.545Z,99.90
2022-11-19T04:04:44.202Z,99.90
2022-11-19T04:07:13.528Z,99.90
2022-11-19T04:09:41.430Z,99.90
2022-11-19T04:12:18.323Z,99.90
2022-11-19T04:14:45.376Z,99.90
2022-11-19T04:17:12.393Z,99.90
2022-11-19T04:19:39.239Z,99.90
2022-11-19T04:22:06.373Z,99.90
2022-11-19T04:24:33.109Z,99.90
2022-11-19T04:27:00.258Z,99.90
2022-11-19T04:29:27.109Z,99.90
2022-11-19T04:31:53.820Z,99.90
2022-11-19T04:34:20.623Z,99.90
2022-11-19T04:36:47.407Z,99.90
2022-11-19T04:39:14.520Z,99.90
2022-11-19T04:41:41.203Z,99.90
2022-11-19T04:44:08.170Z,99.90
2022-11-19T04:46:35.010Z,99.90
2022-11-19T04:49:01.955Z,99.90
2022-11-19T04:51:28.713Z,99.90
2022-11-19T04:53:55.740Z,99.90
2022-11-19T04:56:22.533Z,99.90
2022-11-19T04:58:49.213Z,99.90
2022-11-19T05:01:16.043Z,99.90
2022-11-19T05:03:42.787Z,99.90
2022-11-19T05:06:09.551Z,99.90
2022-11-19T05:08:36.227Z,99.90
2022-11-19T05:11:03.068Z,99.90
2022-11-19T05:13:29.902Z,99.90
2022-11-19T05:15:56.683Z,99.90
2022-11-19T05:18:24.229Z,99.90
2022-11-19T05:20:50.857Z,99.90
2022-11-19T05:23:17.525Z,99.90
2022-11-19T05:25:44.274Z,99.90
2022-11-19T05:28:10.952Z,99.90
2022-11-19T05:30:37.687Z,99.90
2022-11-19T05:33:04.555Z,99.90
2022-11-19T05:35:31.831Z,99.90
2022-11-19T05:37:58.666Z,99.90
2022-11-19T05:40:25.554Z,99.90
2022-11-19T05:42:52.377Z,99.90
2022-11-19T05:45:19.221Z,99.90
2022-11-19T05:47:48.838Z,99.90
2022-11-19T05:50:15.848Z,99.90
2022-11-19T05:52:42.498Z,99.90
2022-11-19T05:55:09.334Z,99.90
2022-11-19T05:57:37.091Z,99.90
2022-11-19T06:00:05.389Z,99.90
2022-11-19T06:02:39.293Z,99.90
2022-11-19T06:05:06.408Z,99.90
2022-11-19T06:07:33.148Z,99.90
2022-11-19T06:10:00.003Z,99.90
2022-11-19T06:12:26.718Z,99.90
2022-11-19T06:14:53.500Z,99.90
2022-11-19T06:17:20.384Z,99.90
2022-11-19T06:19:47.171Z,99.90
2022-11-19T06:22:14.007Z,99.90
2022-11-19T06:24:40.790Z,99.90
2022-11-19T06:27:07.453Z,99.90
2022-11-19T06:29:34.345Z,99.90
2022-11-19T06:32:01.190Z,99.90
2022-11-19T06:34:28.014Z,99.90
2022-11-19T06:36:54.668Z,99.90
2022-11-19T06:39:22.000Z,99.90
2022-11-19T06:41:49.022Z,99.90
2022-11-19T06:44:16.108Z,99.90
2022-11-19T06:46:43.224Z,99.90
2022-11-19T06:49:12.244Z,99.90
2022-11-19T06:51:40.941Z,99.90
2022-11-19T06:54:07.627Z,99.90
2022-11-19T06:56:34.262Z,99.90
2022-11-19T06:59:00.922Z,99.90
2022-11-19T07:01:27.765Z,99.90
2022-11-19T07:03:54.578Z,99.90
2022-11-19T07:06:21.375Z,99.90
2022-11-19T07:08:48.088Z,99.90
2022-11-19T07:11:27.253Z,99.90
2022-11-19T07:13:58.676Z,99.90
2022-11-19T07:16:31.249Z,99.90
2022-11-19T07:19:00.038Z,99.90
2022-11-19T07:21:27.798Z,99.90
2022-11-19T07:23:56.087Z,99.90
2022-11-19T07:26:22.981Z,99.90
2022-11-19T07:28:49.959Z,99.90
2022-11-19T07:31:16.946Z,99.90
2022-11-19T07:33:43.961Z,99.90
2022-11-19T07:36:17.013Z,99.90
2022-11-19T07:38:45.152Z,99.90
2022-11-19T07:41:30.569Z,99.90
2022-11-19T07:43:57.339Z,99.90
2022-11-19T07:46:24.372Z,99.90
2022-11-19T07:48:55.449Z,99.90
2022-11-19T07:51:22.972Z,99.90
2022-11-19T07:53:50.386Z,99.90
2022-11-19T07:56:18.146Z,99.90
2022-11-19T07:58:44.917Z,99.90
2022-11-19T08:01:14.345Z,99.90
2022-11-19T08:03:46.115Z,99.90
2022-11-19T08:06:15.409Z,99.90
2022-11-19T08:08:43.226Z,99.90
2022-11-19T08:11:12.091Z,99.90
2022-11-19T08:13:39.878Z,99.90
2022-11-19T08:16:09.913Z,99.90
2022-11-19T08:18:37.018Z,99.90
2022-11-19T08:21:04.955Z,99.90
2022-11-19T08:23:32.339Z,99.90
2022-11-19T08:26:00.389Z,99.90
2022-11-19T08:28:28.369Z,99.90
2022-11-19T08:30:55.347Z,99.90
2022-11-19T08:33:22.081Z,99.90
2022-11-19T08:35:48.913Z,99.90
2022-11-19T08:38:15.655Z,99.90
2022-11-19T08:40:42.562Z,99.90
2022-11-19T08:43:09.276Z,99.90
2022-11-19T08:45:38.611Z,99.90
2022-11-19T08:48:07.889Z,99.90
2022-11-19T08:50:35.036Z,99.90
2022-11-19T08:53:05.438Z,99.90
2022-11-19T08:55:32.799Z,99.90
2022-11-19T08:58:01.581Z,99.90
2022-11-19T09:00:28.916Z,99.90
2022-11-19T09:02:56.034Z,99.90
2022-11-19T09:05:23.017Z,99.90
2022-11-19T09:07:50.134Z,99.90
2022-11-19T09:10:17.864Z,99.90
2022-11-19T09:12:44.805Z,99.90
2022-11-19T09:15:12.183Z,99.90
2022-11-19T09:17:45.282Z,99.90
2022-11-19T09:20:13.538Z,99.90
2022-11-19T09:22:40.804Z,99.90
2022-11-19T09:25:09.075Z,99.90
2022-11-19T09:27:36.928Z,99.90
2022-11-19T09:30:05.405Z,99.90
2022-11-19T09:32:33.165Z,99.90
2022-11-19T09:34:59.942Z,99.90
2022-11-19T09:37:26.742Z,99.90
2022-11-19T09:39:53.448Z,99.90
2022-11-19T09:42:46.425Z,99.90
2022-11-19T09:45:27.822Z,99.90
2022-11-19T09:48:29.899Z,99.90
2022-11-19T09:51:03.611Z,99.90
2022-11-19T09:53:44.744Z,99.90
2022-11-19T09:56:17.950Z,99.90
2022-11-19T09:58:45.475Z,99.90
2022-11-19T10:01:18.652Z,99.90
2022-11-19T10:03:48.843Z,99.90
2022-11-19T10:06:15.666Z,99.90
2022-11-19T10:09:18.917Z,99.90
2022-11-19T10:12:26.680Z,99.90
2022-11-19T10:15:11.347Z,99.90
2022-11-19T10:17:59.647Z,99.90
2022-11-19T10:20:52.990Z,99.90
2022-11-19T10:23:52.761Z,99.90
2022-11-19T10:26:34.101Z,99.90
2022-11-19T10:29:04.673Z,99.90
2022-11-19T10:31:34.918Z,99.90
2022-11-19T10:34:27.301Z,99.90
2022-11-19T10:37:03.781Z,99.90
2022-11-19T10:39:48.349Z,99.90
2022-11-19T10:42:26.958Z,95.00
2022-11-19T10:44:58.165Z,99.90
2022-11-19T10:47:48.105Z,99.90
2022-11-19T10:50:18.891Z,99.90
2022-11-19T10:52:52.953Z,98.70
2022-11-19T10:55:33.198Z,87.50
2022-11-19T10:58:19.388Z,74.80
2022-11-19T11:00:47.073Z,72.70
2022-11-19T11:03:31.614Z,73.00
2022-11-19T11:06:06.371Z,72.10
2022-11-19T11:08:55.086Z,66.00
2022-11-19T11:11:46.622Z,64.90
2022-11-19T11:14:33.765Z,68.10
2022-11-19T11:17:01.317Z,64.90
2022-11-19T11:19:29.318Z,67.60
2022-11-19T11:21:57.376Z,66.20
2022-11-19T11:24:36.951Z,68.10
2022-11-19T11:27:31.506Z,70.30
2022-11-19T11:30:15.996Z,69.70
2022-11-19T11:32:43.451Z,76.20
2022-11-19T11:35:30.682Z,82.80
2022-11-19T11:37:58.699Z,74.20
2022-11-19T11:40:25.450Z,80.30
2022-11-19T11:42:53.730Z,75.90
2022-11-19T11:45:34.051Z,85.80
2022-11-19T11:48:19.469Z,82.10
2022-11-19T11:50:46.982Z,85.50
2022-11-19T11:53:15.562Z,91.70
2022-11-19T11:55:43.550Z,93.50
2022-11-19T11:58:30.997Z,86.90
2022-11-19T12:01:15.821Z,83.90
2022-11-19T12:03:58.370Z,87.10
2022-11-19T12:06:31.452Z,91.50
2022-11-19T12:09:13.267Z,92.10
2022-11-19T12:12:04.105Z,80.80
2022-11-19T12:14:48.868Z,79.30
2022-11-19T12:17:32.334Z,81.90
2022-11-19T12:20:24.059Z,78.50
2022-11-19T12:22:59.646Z,74.60
2022-11-19T12:25:41.532Z,90.50
2022-11-19T12:28:35.434Z,80.50
2022-11-19T12:31:17.186Z,89.90
2022-11-19T12:34:11.388Z,73.80
2022-11-19T12:36:50.632Z,80.20
2022-11-19T12:39:32.770Z,78.70
2022-11-19T12:42:22.256Z,77.00
2022-11-19T12:45:13.741Z,82.70
2022-11-19T12:48:01.815Z,79.00
2022-11-19T12:50:54.495Z,86.50
2022-11-19T12:53:51.924Z,78.00
2022-11-19T12:56:31.512Z,68.70
2022-11-19T12:59:24.798Z,91.10
2022-11-19T13:01:54.929Z,77.10
2022-11-19T13:04:25.670Z,78.90
2022-11-19T13:07:19.272Z,73.80
2022-11-19T13:09:56.683Z,70.90
2022-11-19T13:12:32.222Z,68.20
2022-11-19T13:15:06.038Z,67.80
2022-11-19T13:17:42.616Z,69.10
2022-11-19T13:20:22.642Z,64.70
2022-11-19T13:22:54.642Z,64.80
2022-11-19T13:25:26.603Z,66.80
2022-11-19T13:27:56.505Z,64.00
2022-11-19T13:30:26.925Z,65.90
2022-11-19T13:33:11.468Z,68.20
2022-11-19T13:35:56.062Z,66.10
2022-11-19T13:38:31.548Z,67.20
2022-11-19T13:41:18.831Z,61.10
2022-11-19T13:44:04.257Z,62.50
2022-11-19T13:46:57.234Z,63.70
2022-11-19T13:49:28.613Z,65.70
2022-11-19T13:52:19.226Z,64.10
2022-11-19T13:54:46.054Z,66.40
2022-11-19T13:57:37.639Z,68.50
2022-11-19T14:00:07.517Z,66.70
2022-11-19T14:03:00.128Z,66.20
2022-11-19T14:05:43.383Z,65.70
2022-11-19T14:08:34.599Z,66.40
2022-11-19T14:11:38.471Z,66.60
2022-11-19T14:14:50.807Z,62.90
2022-11-19T14:18:16.214Z,64.70
2022-11-19T14:21:03.604Z,65.40
2022-11-19T14:24:06.505Z,62.50
2022-11-19T14:26:42.101Z,66.10
2022-11-19T14:29:26.665Z,64.20
2022-11-19T14:32:02.989Z,66.30
2022-11-19T14:34:32.421Z,66.70
2022-11-19T14:37:03.288Z,66.40
2022-11-19T14:39:41.335Z,64.90
2022-11-19T14:42:23.445Z,63.50
2022-11-19T14:45:05.203Z,66.20
2022-11-19T14:47:36.161Z,67.10
2022-11-19T14:50:08.826Z,66.00
2022-11-19T14:52:49.214Z,69.00
2022-11-19T14:55:25.563Z,65.70
2022-11-19T14:58:18.186Z,65.90
2022-11-19T15:00:45.375Z,67.00
2022-11-19T15:03:24.493Z,68.00
2022-11-19T15:05:51.728Z,68.70
2022-11-19T15:08:18.349Z,70.40
2022-11-19T15:11:03.493Z,70.10
2022-11-19T15:13:32.161Z,69.80
2022-11-19T15:16:07.973Z,70.00
2022-11-19T15:18:40.725Z,68.20
2022-11-19T15:21:10.353Z,68.10
2022-11-19T15:23:52.658Z,67.70
2022-11-19T15:26:45.294Z,71.40
2022-11-19T15:29:32.156Z,71.10
2022-11-19T15:32:28.593Z,69.40
2022-11-19T15:35:12.077Z,70.20
2022-11-19T15:37:51.431Z,76.70
2022-11-19T15:40:30.135Z,72.20
2022-11-19T15:43:15.614Z,76.20
2022-11-19T15:46:05.201Z,74.20
2022-11-19T15:49:00.126Z,78.90
2022-11-19T15:51:27.111Z,78.40
2022-11-19T15:54:06.942Z,85.90
2022-11-19T15:56:39.336Z,81.00
2022-11-19T15:59:09.622Z,81.30
2022-11-19T16:01:36.494Z,88.60
2022-11-19T16:04:07.587Z,86.10
2022-11-19T16:06:35.990Z,87.60
2022-11-19T16:09:04.878Z,89.40
2022-11-19T16:11:54.527Z,90.80
2022-11-19T16:14:42.385Z,90.80
2022-11-19T16:17:34.018Z,91.60
2022-11-19T16:20:11.591Z,92.80
2022-11-19T16:22:52.657Z,92.40
2022-11-19T16:25:41.771Z,93.60
2022-11-19T16:28:19.672Z,93.70
2022-11-19T16:30:54.853Z,93.50
2022-11-19T16:33:26.896Z,95.80
2022-11-19T16:36:11.941Z,95.20
2022-11-19T16:38:41.873Z,93.20
2022-11-19T16:41:31.008Z,96.50
2022-11-19T16:43:58.728Z,95.80
2022-11-19T16:46:28.724Z,96.20
2022-11-19T16:48:57.925Z,96.70
2022-11-19T16:51:38.433Z,95.80
2022-11-19T16:54:08.493Z,97.20
2022-11-19T16:56:40.106Z,95.80
2022-11-19T16:59:07.818Z,96.50
2022-11-19T17:01:35.892Z,97.80
2022-11-19T17:04:07.943Z,99.90
2022-11-19T17:06:37.173Z,99.90
2022-11-19T17:09:05.565Z,99.90
2022-11-19T17:11:58.206Z,99.90
2022-11-19T17:14:58.049Z,99.90
2022-11-19T17:17:34.335Z,99.90
2022-11-19T17:20:24.575Z,99.90
2022-11-19T17:22:51.355Z,99.90
2022-11-19T17:25:18.517Z,99.90
2022-11-19T17:27:54.395Z,99.90
2022-11-19T17:30:27.189Z,99.90
2022-11-19T17:32:57.640Z,99.90
2022-11-19T17:35:39.081Z,99.90
2022-11-19T17:38:10.347Z,99.90
2022-11-19T17:40:38.253Z,99.90
2022-11-19T17:43:28.964Z,99.90
2022-11-19T17:45:55.721Z,99.90
2022-11-19T17:48:24.757Z,99.90
2022-11-19T17:50:51.754Z,99.90
2022-11-19T17:53:19.102Z,99.90
2022-11-19T17:55:46.974Z,99.90
2022-11-19T17:58:14.219Z,99.90
2022-11-19T18:00:41.458Z,99.90
2022-11-19T18:03:12.854Z,99.90
2022-11-19T18:05:43.621Z,99.90
2022-11-19T18:08:10.393Z,99.90
2022-11-19T18:10:38.436Z,99.90
2022-11-19T18:13:05.773Z,99.90
2022-11-19T18:15:32.512Z,99.90
2022-11-19T18:17:59.393Z,99.90
2022-11-19T18:20:26.125Z,99.90
2022-11-19T18:22:53.419Z,99.90
2022-11-19T18:25:21.893Z,99.90
2022-11-19T18:27:48.919Z,99.90
2022-11-19T18:30:16.297Z,99.90
2022-11-19T18:32:43.126Z,99.90
2022-11-19T18:35:18.467Z,99.90
2022-11-19T18:37:45.941Z,99.90
2022-11-19T18:40:14.172Z,99.90
2022-11-19T18:43:00.191Z,99.90
2022-11-19T18:45:27.696Z,99.90
2022-11-19T18:47:54.939Z,99.90
2022-11-19T18:50:26.761Z,99.90
2022-11-19T18:52:56.518Z,99.90
2022-11-19T18:55:23.270Z,99.90
2022-11-19T18:57:50.071Z,99.90
2022-11-19T19:00:18.129Z,99.90
2022-11-19T19:02:44.858Z,99.90
2022-11-19T19:05:11.597Z,99.90
2022-11-19T19:07:38.522Z,99.90
2022-11-19T19:10:05.735Z,99.90
2022-11-19T19:12:32.608Z,99.90
2022-11-19T19:14:59.877Z,99.90
2022-11-19T19:17:26.913Z,99.90
2022-11-19T19:19:53.917Z,99.90
2022-11-19T19:22:20.760Z,99.90
2022-11-19T19:24:47.700Z,99.90
2022-11-19T19:27:15.259Z,99.90
2022-11-19T19:29:42.477Z,99.90
2022-11-19T19:32:09.413Z,99.90
2022-11-19T19:34:36.545Z,99.90
2022-11-19T19:37:05.311Z,99.90
2022-11-19T19:39:32.335Z,99.90
2022-11-19T19:41:58.997Z,99.90
2022-11-19T19:44:25.689Z,99.90
2022-11-19T19:46:52.374Z,99.90
2022-11-19T19:49:19.691Z,99.90
2022-11-19T19:51:47.278Z,99.90
2022-11-19T19:54:14.126Z,99.90
2022-11-19T19:56:41.604Z,99.90
2022-11-19T19:59:11.363Z,99.90
2022-11-19T20:01:38.341Z,99.90
2022-11-19T20:04:08.615Z,99.90
2022-11-19T20:06:40.906Z,99.90
2022-11-19T20:09:09.322Z,99.90
2022-11-19T20:11:37.112Z,99.90
2022-11-19T20:14:04.379Z,99.90
2022-11-19T20:16:32.844Z,99.90
2022-11-19T20:19:01.076Z,99.90
2022-11-19T20:21:31.787Z,99.90
2022-11-19T20:23:58.807Z,99.90
2022-11-19T20:26:28.254Z,99.90
2022-11-19T20:28:57.291Z,99.90
2022-11-19T20:31:24.940Z,99.90
2022-11-19T20:33:57.631Z,99.90
2022-11-19T20:36:27.541Z,99.90
2022-11-19T20:38:54.258Z,99.90
2022-11-19T20:41:40.961Z,99.90
2022-11-19T20:44:20.235Z,99.90
2022-11-19T20:47:02.054Z,99.90
2022-11-19T20:49:31.933Z,99.90
2022-11-19T20:51:58.761Z,99.90
2022-11-19T20:54:26.780Z,99.90
2022-11-19T20:56:54.959Z,99.90
2022-11-19T20:59:22.899Z,99.90
2022-11-19T21:01:50.447Z,99.90
2022-11-19T21:04:18.017Z,99.90
2022-11-19T21:06:44.951Z,99.90
2022-11-19T21:09:11.895Z,99.90
2022-11-19T21:11:39.026Z,99.90
2022-11-19T21:14:06.337Z,99.90
2022-11-19T21:16:33.045Z,99.90
2022-11-19T21:19:00.191Z,99.90
2022-11-19T21:21:27.322Z,99.90
2022-11-19T21:23:54.613Z,99.90
2022-11-19T21:26:23.641Z,99.90
2022-11-19T21:28:52.790Z,99.90
2022-11-19T21:31:22.222Z,99.90
2022-11-19T21:33:49.333Z,99.90
2022-11-19T21:36:16.155Z,99.90
2022-11-19T21:38:42.810Z,99.90
2022-11-19T21:41:09.521Z,99.90
2022-11-19T21:43:36.802Z,99.90
2022-11-19T21:46:07.495Z,99.90
2022-11-19T21:48:36.668Z,99.90
2022-11-19T21:51:07.798Z,99.90
2022-11-19T21:53:35.650Z,99.90
2022-11-19T21:56:02.538Z,99.90
2022-11-19T21:58:29.386Z,99.90
2022-11-19T22:01:00.896Z,99.90
2022-11-19T22:03:31.119Z,99.90
2022-11-19T22:06:02.648Z,99.90
2022-11-19T22:08:31.058Z,99.90
2022-11-19T22:10:57.928Z,99.90
2022-11-19T22:13:25.004Z,99.90
2022-11-19T22:16:00.181Z,99.90
2022-11-19T22:18:27.034Z,99.90
2022-11-19T22:21:01.705Z,99.90
2022-11-19T22:23:28.422Z,99.90
2022-11-19T22:25:55.223Z,99.90
2022-11-19T22:28:21.956Z,99.90
2022-11-19T22:30:53.340Z,99.90
2022-11-19T22:33:20.415Z,99.90
2022-11-19T22:35:47.526Z,99.90
2022-11-19T22:38:15.147Z,99.90
2022-11-19T22:40:42.033Z,99.90
2022-11-19T22:43:08.687Z,99.90
2022-11-19T22:45:35.581Z,99.90
2022-11-19T22:48:02.507Z,99.90
2022-11-19T22:50:29.153Z,99.90
2022-11-19T22:52:55.878Z,99.90
2022-11-19T22:55:22.538Z,99.90
2022-11-19T22:57:49.198Z,99.90
2022-11-19T23:00:37.906Z,99.90
2022-11-19T23:03:04.794Z,99.90
2022-11-19T23:05:36.886Z,99.90
2022-11-19T23:08:05.801Z,99.90
2022-11-19T23:10:33.568Z,99.90
2022-11-19T23:13:19.741Z,99.90
2022-11-19T23:16:14.310Z,99.90
2022-11-19T23:18:49.709Z,99.90
2022-11-19T23:21:25.140Z,99.90
2022-11-19T23:23:52.606Z,99.90
2022-11-19T23:26:27.229Z,99.90
2022-11-19T23:28:54.710Z,99.90
2022-11-19T23:31:27.409Z,99.90
2022-11-19T23:33:58.798Z,99.90
2022-11-19T23:36:31.502Z,99.90
2022-11-19T23:38:59.730Z,99.90
2022-11-19T23:41:27.385Z,99.90
2022-11-19T23:43:55.125Z,99.90
2022-11-19T23:46:27.745Z,99.90
2022-11-19T23:48:55.638Z,99.90
2022-11-19T23:51:27.876Z,99.90
2022-11-19T23:53:55.336Z,99.90
2022-11-19T23:56:23.972Z,99.90
2022-11-19T23:58:51.625Z,99.90
